createdAt,value
2019-05-22T00:00:58.134Z,28.23
2019-05-22T00:03:33.676Z,23.27
2019-05-22T00:08:43.130Z,25.37
2019-05-22T00:11:13.280Z,28.33
2019-05-22T00:13:44.508Z,26.57
2019-05-22T00:16:14.757Z,26.33
2019-05-22T00:21:22.294Z,28.87
2019-05-22T00:23:52.069Z,29.80
2019-05-22T00:26:22.918Z,27.87
2019-05-22T00:28:53.655Z,24.63
2019-05-22T00:31:23.320Z,24.93
2019-05-22T00:33:54.381Z,25.50
2019-05-22T00:36:23.803Z,23.33
2019-05-22T00:41:37.870Z,25.83
2019-05-22T00:44:08.380Z,25.03
2019-05-22T00:49:16.528Z,26.33
2019-05-22T00:52:25.302Z,26.80
2019-05-22T00:57:56.317Z,26.50
2019-05-22T01:00:28.018Z,31.20
2019-05-22T01:05:48.191Z,30.07
2019-05-22T01:08:17.623Z,25.57
2019-05-22T01:13:35.680Z,23.90
2019-05-22T01:16:07.786Z,29.20
2019-05-22T01:18:38.724Z,29.57
2019-05-22T01:21:09.805Z,27.77
2019-05-22T01:26:25.679Z,22.47
2019-05-22T01:28:55.747Z,28.00
2019-05-22T01:31:35.627Z,27.33
2019-05-22T01:34:12.169Z,27.23
2019-05-22T01:36:46.829Z,30.03
2019-05-22T01:42:27.862Z,30.63
2019-05-22T01:45:05.675Z,29.70
2019-05-22T01:47:53.348Z,25.20
2019-05-22T01:50:41.274Z,31.10
2019-05-22T01:53:13.210Z,30.80
2019-05-22T01:58:30.313Z,26.60
2019-05-22T02:01:00.203Z,20.33
2019-05-22T02:06:09.484Z,29.20
2019-05-22T02:08:44.989Z,29.63
2019-05-22T02:11:19.164Z,28.23
2019-05-22T02:13:57.521Z,19.17
2019-05-22T02:16:30.106Z,28.47
2019-05-22T02:21:37.578Z,29.97
2019-05-22T02:24:07.042Z,29.10
2019-05-22T02:29:23.096Z,26.13
2019-05-22T02:31:55.579Z,27.20
2019-05-22T02:37:06.972Z,31.27
2019-05-22T02:42:25.911Z,30.23
2019-05-22T02:44:55.112Z,31.20
2019-05-22T02:47:24.848Z,29.60
2019-05-22T02:49:55.581Z,25.33
2019-05-22T02:52:25.086Z,26.17
2019-05-22T02:54:55.023Z,25.40
2019-05-22T02:57:27.869Z,18.53
2019-05-22T02:59:58.037Z,18.97
2019-05-22T03:05:10.451Z,21.57
2019-05-22T03:07:41.284Z,18.73
2019-05-22T03:12:56.031Z,21.47
2019-05-22T03:18:07.697Z,21.33
2019-05-22T03:20:39.785Z,21.50
2019-05-22T03:23:35.926Z,21.87
2019-05-22T03:26:07.642Z,22.50
2019-05-22T03:31:18.166Z,20.03
2019-05-22T03:33:47.435Z,21.10
2019-05-22T03:36:20.375Z,8.67
2019-05-22T03:38:50.117Z,13.47
2019-05-22T03:41:20.312Z,17.23
2019-05-22T03:43:50.789Z,13.80
2019-05-22T03:46:45.675Z,18.63
2019-05-22T03:49:30.113Z,13.40
2019-05-22T03:51:51.938Z,18.70
2019-05-22T03:54:21.470Z,17.40
2019-05-22T03:59:28.577Z,16.17
2019-05-22T04:01:58.591Z,18.37
2019-05-22T04:04:39.714Z,18.57
2019-05-22T04:07:13.585Z,18.17
2019-05-22T04:09:44.976Z,16.53
2019-05-22T04:14:56.570Z,13.63
2019-05-22T04:20:09.092Z,15.27
2019-05-22T04:22:38.872Z,11.07
2019-05-22T04:25:09.660Z,17.00
2019-05-22T04:27:39.897Z,13.50
2019-05-22T04:30:12.507Z,14.80
2019-05-22T04:32:44.199Z,13.83
2019-05-22T04:35:16.931Z,6.77
2019-05-22T04:37:49.014Z,12.37
2019-05-22T04:40:57.469Z,14.87
2019-05-22T04:43:30.464Z,10.80
2019-05-22T04:46:00.734Z,12.83
2019-05-22T04:48:34.732Z,12.00
2019-05-22T04:54:00.047Z,8.17
2019-05-22T04:56:29.685Z,12.87
2019-05-22T04:59:01.140Z,10.23
2019-05-22T05:04:07.848Z,12.33
2019-05-22T05:06:36.970Z,4.93
2019-05-22T05:09:13.785Z,15.80
2019-05-22T05:14:26.250Z,11.00
2019-05-22T05:19:33.413Z,15.83
2019-05-22T05:24:40.314Z,12.60
2019-05-22T05:29:53.078Z,17.23
2019-05-22T05:32:22.591Z,15.83
2019-05-22T05:35:00.859Z,11.97
2019-05-22T05:37:29.676Z,15.30
2019-05-22T05:40:31.247Z,15.70
2019-05-22T05:43:01.005Z,14.53
2019-05-22T05:45:32.097Z,17.90
2019-05-22T05:48:02.775Z,16.57
2019-05-22T05:50:39.732Z,16.47
2019-05-22T05:53:06.092Z,14.40
2019-05-22T05:56:13.854Z,13.87
2019-05-22T05:58:43.836Z,14.87
2019-05-22T06:01:23.715Z,14.10
2019-05-22T06:07:19.125Z,12.80
2019-05-22T06:10:42.675Z,15.33
2019-05-22T06:13:12.283Z,14.77
2019-05-22T06:16:48.763Z,15.03
2019-05-22T06:19:19.404Z,16.30
2019-05-22T06:21:49.724Z,13.73
2019-05-22T06:24:45.150Z,15.17
2019-05-22T06:27:25.300Z,14.93
2019-05-22T06:30:06.959Z,16.23
2019-05-22T06:33:38.589Z,15.53
2019-05-22T06:36:13.747Z,15.40
2019-05-22T06:39:02.567Z,5.87
2019-05-22T06:41:38.202Z,13.13
2019-05-22T06:44:42.851Z,9.33
2019-05-22T06:50:05.927Z,12.00
2019-05-22T06:52:35.798Z,12.37
2019-05-22T06:55:05.609Z,12.47
2019-05-22T06:57:35.822Z,11.30
2019-05-22T07:00:21.468Z,8.13
2019-05-22T07:02:50.509Z,6.73
2019-05-22T07:05:19.774Z,9.80
2019-05-22T07:07:49.117Z,10.67
2019-05-22T07:10:18.922Z,10.10
2019-05-22T07:12:50.898Z,11.47
2019-05-22T07:15:41.266Z,13.57
2019-05-22T07:18:13.046Z,12.60
2019-05-22T07:20:44.720Z,12.67
2019-05-22T07:23:16.385Z,12.37
2019-05-22T07:25:46.730Z,13.50
2019-05-22T07:28:17.915Z,12.73
2019-05-22T07:33:25.446Z,12.73
2019-05-22T07:36:09.427Z,12.47
2019-05-22T07:38:27.270Z,13.83
2019-05-22T07:40:56.541Z,12.27
2019-05-22T07:43:25.977Z,10.73
2019-05-22T07:45:56.492Z,10.50
2019-05-22T07:48:27.583Z,10.83
2019-05-22T07:50:57.781Z,10.03
2019-05-22T07:53:27.467Z,8.93
2019-05-22T07:55:59.071Z,8.60
2019-05-22T07:58:30.631Z,7.87
2019-05-22T08:01:01.683Z,9.50
2019-05-22T08:03:32.047Z,7.07
2019-05-22T08:06:01.334Z,10.90
2019-05-22T08:08:33.047Z,9.53
2019-05-22T08:13:43.922Z,10.00
2019-05-22T08:16:13.064Z,6.43
2019-05-22T08:18:42.429Z,8.93
2019-05-22T08:23:53.029Z,8.07
2019-05-22T08:29:06.667Z,7.10
2019-05-22T08:31:37.813Z,8.40
2019-05-22T08:34:08.348Z,7.60
2019-05-22T08:36:39.168Z,8.40
2019-05-22T08:41:47.057Z,6.03
2019-05-22T08:44:18.027Z,8.80
2019-05-22T08:46:47.989Z,7.63
2019-05-22T08:49:17.280Z,5.47
2019-05-22T08:51:46.507Z,7.80
2019-05-22T08:54:15.933Z,7.20
2019-05-22T08:56:50.373Z,6.03
2019-05-22T08:59:20.696Z,6.17
2019-05-22T09:01:49.952Z,7.03
2019-05-22T09:04:19.304Z,6.47
2019-05-22T09:06:48.797Z,5.27
2019-05-22T09:09:18.008Z,5.30
2019-05-22T09:11:47.550Z,5.73
2019-05-22T09:14:16.730Z,5.83
2019-05-22T09:19:26.569Z,5.33
2019-05-22T09:21:56.796Z,2.50
2019-05-22T09:27:04.772Z,6.03
2019-05-22T09:32:10.974Z,6.90
2019-05-22T09:34:40.183Z,5.83
2019-05-22T09:39:47.823Z,5.47
2019-05-22T09:42:17.103Z,6.10
2019-05-22T09:44:45.886Z,4.97
2019-05-22T09:47:14.530Z,5.30
2019-05-22T09:49:44.121Z,5.30
2019-05-22T09:52:13.396Z,5.33
2019-05-22T09:57:22.340Z,4.20
2019-05-22T09:59:50.962Z,5.50
2019-05-22T10:02:20.105Z,4.23
2019-05-22T10:04:49.085Z,5.37
2019-05-22T10:09:56.328Z,5.27
2019-05-22T10:12:25.067Z,5.53
2019-05-22T10:14:54.195Z,5.13
2019-05-22T10:17:24.045Z,5.03
2019-05-22T10:19:53.265Z,5.07
2019-05-22T10:22:22.768Z,4.90
2019-05-22T10:24:52.461Z,4.57
2019-05-22T10:27:22.534Z,6.40
2019-05-22T10:32:32.658Z,5.83
2019-05-22T10:35:01.729Z,6.60
2019-05-22T10:37:30.463Z,7.13
2019-05-22T10:39:59.886Z,6.00
2019-05-22T10:42:29.257Z,5.77
2019-05-22T10:44:57.978Z,5.97
2019-05-22T10:47:26.685Z,2.13
2019-05-22T10:49:57.265Z,5.33
2019-05-22T10:52:26.406Z,5.10
2019-05-22T10:54:56.086Z,4.50
2019-05-22T10:57:25.644Z,5.53
2019-05-22T10:59:54.689Z,5.27
2019-05-22T11:05:03.126Z,5.57
2019-05-22T11:07:33.281Z,3.70
2019-05-22T11:10:03.150Z,5.07
2019-05-22T11:12:32.235Z,4.80
2019-05-22T11:15:01.356Z,4.87
2019-05-22T11:17:31.746Z,4.97
2019-05-22T11:20:00.407Z,4.07
2019-05-22T11:25:12.926Z,4.73
2019-05-22T11:27:41.648Z,3.30
2019-05-22T11:30:13.406Z,4.60
2019-05-22T11:35:22.251Z,4.07
2019-05-22T11:37:52.470Z,3.87
2019-05-22T11:43:04.065Z,4.40
2019-05-22T11:45:33.799Z,3.50
2019-05-22T11:50:46.837Z,3.33
2019-05-22T11:53:16.339Z,4.63
2019-05-22T11:55:46.353Z,3.67
2019-05-22T11:58:15.935Z,4.43
2019-05-22T12:03:24.308Z,4.00
2019-05-22T12:08:38.268Z,4.27
2019-05-22T12:11:08.094Z,4.57
2019-05-22T12:16:23.111Z,2.53
2019-05-22T12:18:53.391Z,4.40
2019-05-22T12:21:22.284Z,4.30
2019-05-22T12:23:51.708Z,4.50
2019-05-22T12:26:21.046Z,4.83
2019-05-22T12:31:27.813Z,4.20
2019-05-22T12:33:57.027Z,4.90
2019-05-22T12:36:28.271Z,4.57
2019-05-22T12:38:58.493Z,4.37
2019-05-22T12:41:28.612Z,3.93
2019-05-22T12:43:57.316Z,3.50
2019-05-22T12:46:27.905Z,3.37
2019-05-22T12:48:58.206Z,3.67
2019-05-22T12:54:05.771Z,3.33
2019-05-22T12:59:14.465Z,3.07
2019-05-22T13:01:45.461Z,3.53
2019-05-22T13:04:15.521Z,3.87
2019-05-22T13:06:45.195Z,3.10
2019-05-22T13:09:14.681Z,7.03
2019-05-22T13:11:46.656Z,3.90
2019-05-22T13:16:59.360Z,3.50
2019-05-22T13:19:32.660Z,3.70
2019-05-22T13:24:44.594Z,4.50
2019-05-22T13:29:54.725Z,4.47
2019-05-22T13:32:23.939Z,5.20
2019-05-22T13:34:54.027Z,5.60
2019-05-22T13:37:22.899Z,4.63
2019-05-22T13:39:52.430Z,4.50
2019-05-22T13:42:22.117Z,3.63
2019-05-22T13:44:54.301Z,3.33
2019-05-22T13:47:25.025Z,2.90
2019-05-22T13:49:55.051Z,2.73
2019-05-22T13:52:25.112Z,2.70
2019-05-22T13:54:56.046Z,2.40
2019-05-22T13:57:25.516Z,2.70
2019-05-22T13:59:54.374Z,2.57
2019-05-22T14:02:26.976Z,3.20
2019-05-22T14:04:54.917Z,3.30
2019-05-22T14:07:24.179Z,2.20
2019-05-22T14:09:54.090Z,3.03
2019-05-22T14:15:02.706Z,3.10
2019-05-22T14:17:32.515Z,3.20
2019-05-22T14:20:02.217Z,3.00
2019-05-22T14:22:31.020Z,2.73
2019-05-22T14:25:00.098Z,2.80
2019-05-22T14:27:29.197Z,2.77
2019-05-22T14:29:58.006Z,3.00
2019-05-22T14:35:04.928Z,2.83
2019-05-22T14:37:34.184Z,3.10
2019-05-22T14:40:04.236Z,3.30
2019-05-22T14:42:33.408Z,3.20
2019-05-22T14:45:02.395Z,3.03
2019-05-22T14:47:31.033Z,3.10
2019-05-22T14:49:59.862Z,4.73
2019-05-22T14:52:28.883Z,3.70
2019-05-22T14:54:57.587Z,3.20
2019-05-22T14:57:26.672Z,3.53
2019-05-22T14:59:56.528Z,3.73
2019-05-22T15:02:25.704Z,3.33
2019-05-22T15:04:55.198Z,3.47
2019-05-22T15:07:24.422Z,3.70
2019-05-22T15:09:53.089Z,3.23
2019-05-22T15:12:22.228Z,3.50
2019-05-22T15:17:32.194Z,3.93
2019-05-22T15:22:36.812Z,3.63
2019-05-22T15:25:06.321Z,3.27
2019-05-22T15:27:35.432Z,2.87
2019-05-22T15:30:04.859Z,2.60
2019-05-22T15:35:15.092Z,2.57
2019-05-22T15:37:45.960Z,3.97
2019-05-22T15:40:18.789Z,2.23
2019-05-22T15:42:48.008Z,2.00
2019-05-22T15:45:20.556Z,2.20
2019-05-22T15:47:55.337Z,2.37
2019-05-22T15:50:27.287Z,2.10
2019-05-22T15:53:02.506Z,2.37
2019-05-22T15:55:33.423Z,2.10
2019-05-22T16:00:47.527Z,2.27
2019-05-22T16:03:20.578Z,2.13
2019-05-22T16:05:52.741Z,1.60
2019-05-22T16:08:22.423Z,2.17
2019-05-22T16:10:51.978Z,2.20
2019-05-22T16:13:24.675Z,2.10
2019-05-22T16:15:56.459Z,1.90
2019-05-22T16:18:31.472Z,1.90
2019-05-22T16:21:04.446Z,2.03
2019-05-22T16:23:37.833Z,2.03
2019-05-22T16:26:09.308Z,2.17
2019-05-22T16:31:18.902Z,1.87
2019-05-22T16:33:51.168Z,2.20
2019-05-22T16:36:20.771Z,2.17
2019-05-22T16:38:50.651Z,2.00
2019-05-22T16:44:04.264Z,1.90
2019-05-22T16:49:15.711Z,1.97
2019-05-22T16:51:45.995Z,1.87
2019-05-22T16:54:20.473Z,1.73
2019-05-22T16:56:47.711Z,2.20
2019-05-22T16:59:18.137Z,1.90
2019-05-22T17:01:58.916Z,1.53
2019-05-22T17:04:18.066Z,1.67
2019-05-22T17:06:47.096Z,1.57
2019-05-22T17:09:18.553Z,1.50
2019-05-22T17:14:25.735Z,1.60
2019-05-22T17:16:54.838Z,1.53
2019-05-22T17:22:05.148Z,1.20
2019-05-22T17:24:34.423Z,1.20
2019-05-22T17:27:04.006Z,1.20
2019-05-22T17:29:33.817Z,1.43
2019-05-22T17:32:03.730Z,1.17
2019-05-22T17:37:13.659Z,1.30
2019-05-22T17:39:46.139Z,1.30
2019-05-22T17:42:18.876Z,1.23
2019-05-22T17:44:51.414Z,1.30
2019-05-22T17:47:23.364Z,1.37
2019-05-22T17:52:30.043Z,1.00
2019-05-22T17:54:59.059Z,1.10
2019-05-22T17:57:30.087Z,1.07
2019-05-22T18:02:50.957Z,1.00
2019-05-22T18:05:20.083Z,1.10
2019-05-22T18:07:49.502Z,1.20
2019-05-22T18:10:18.556Z,1.20
2019-05-22T18:12:47.455Z,1.33
2019-05-22T18:15:17.083Z,1.10
2019-05-22T18:17:47.235Z,1.10
2019-05-22T18:20:18.205Z,1.47
2019-05-22T18:22:47.159Z,1.20
2019-05-22T18:27:54.334Z,1.23
2019-05-22T18:30:25.769Z,0.87
2019-05-22T18:35:32.740Z,1.20
2019-05-22T18:38:04.603Z,1.30
2019-05-22T18:43:10.303Z,1.03
2019-05-22T18:45:39.957Z,1.10
2019-05-22T18:48:09.316Z,1.27
2019-05-22T18:50:38.115Z,1.50
2019-05-22T18:53:07.033Z,1.20
2019-05-22T18:58:16.047Z,1.00
2019-05-22T19:00:45.514Z,1.13
2019-05-22T19:03:14.200Z,1.00
2019-05-22T19:05:43.499Z,1.20
2019-05-22T19:08:13.098Z,1.20
2019-05-22T19:13:21.220Z,1.50
2019-05-22T19:15:50.033Z,1.10
2019-05-22T19:18:19.541Z,1.20
2019-05-22T19:20:48.524Z,1.23
2019-05-22T19:23:17.237Z,1.50
2019-05-22T19:25:46.001Z,1.57
2019-05-22T19:30:55.436Z,1.33
2019-05-22T19:33:24.723Z,1.20
2019-05-22T19:35:54.661Z,1.03
2019-05-22T19:38:24.227Z,1.30
2019-05-22T19:40:52.858Z,1.60
2019-05-22T19:43:21.731Z,1.30
2019-05-22T19:45:51.578Z,1.43
2019-05-22T19:48:20.853Z,1.90
2019-05-22T19:50:50.441Z,1.60
2019-05-22T19:55:59.913Z,1.03
2019-05-22T19:58:29.829Z,1.27
2019-05-22T20:00:58.567Z,1.50
2019-05-22T20:03:27.992Z,1.50
2019-05-22T20:05:56.701Z,1.33
2019-05-22T20:08:25.638Z,1.60
2019-05-22T20:10:54.510Z,1.40
2019-05-22T20:16:04.215Z,2.43
2019-05-22T20:18:33.450Z,1.77
2019-05-22T20:21:02.076Z,1.60
2019-05-22T20:23:36.058Z,1.70
2019-05-22T20:26:01.753Z,1.60
2019-05-22T20:28:31.415Z,1.90
2019-05-22T20:31:00.670Z,1.60
2019-05-22T20:36:06.916Z,2.03
2019-05-22T20:38:36.463Z,2.37
2019-05-22T20:41:05.949Z,2.07
2019-05-22T20:43:34.908Z,1.90
2019-05-22T20:46:06.358Z,1.63
2019-05-22T20:48:35.555Z,2.17
2019-05-22T20:51:07.423Z,1.83
2019-05-22T20:53:52.996Z,2.27
2019-05-22T20:56:10.865Z,2.33
2019-05-22T20:58:40.516Z,2.50
2019-05-22T21:01:10.339Z,2.23
2019-05-22T21:06:22.622Z,2.10
2019-05-22T21:08:52.097Z,2.30
2019-05-22T21:11:25.446Z,2.30
2019-05-22T21:13:54.106Z,2.10
2019-05-22T21:16:22.983Z,2.50
2019-05-22T21:18:52.758Z,2.23
2019-05-22T21:21:24.660Z,2.23
2019-05-22T21:24:09.286Z,2.20
2019-05-22T21:29:04.250Z,2.17
2019-05-22T21:31:34.340Z,3.10
2019-05-22T21:34:03.429Z,2.53
2019-05-22T21:36:33.546Z,2.50
2019-05-22T21:39:02.848Z,2.50
2019-05-22T21:41:31.977Z,2.63
2019-05-22T21:44:00.645Z,2.67
2019-05-22T21:46:30.404Z,2.70
2019-05-22T21:48:59.996Z,2.30
2019-05-22T21:54:09.084Z,2.60
2019-05-22T21:56:39.053Z,2.63
2019-05-22T21:59:08.217Z,2.80
2019-05-22T22:01:47.722Z,2.60
2019-05-22T22:04:25.422Z,2.80
2019-05-22T22:06:55.099Z,3.00
2019-05-22T22:09:26.230Z,3.00
2019-05-22T22:11:55.577Z,2.90
2019-05-22T22:14:25.432Z,2.90
2019-05-22T22:16:55.881Z,2.80
2019-05-22T22:19:25.619Z,3.03
2019-05-22T22:21:55.635Z,2.90
2019-05-22T22:24:25.887Z,2.60
2019-05-22T22:26:56.296Z,2.80
2019-05-22T22:29:25.481Z,2.60
2019-05-22T22:31:57.293Z,2.80
2019-05-22T22:34:39.986Z,3.23
2019-05-22T22:37:11.079Z,3.00
2019-05-22T22:39:43.022Z,3.27
2019-05-22T22:42:13.970Z,3.27
2019-05-22T22:44:46.080Z,3.13
2019-05-22T22:47:19.661Z,3.13
2019-05-22T22:49:48.662Z,3.97
2019-05-22T22:52:18.889Z,3.43
2019-05-22T22:54:48.096Z,3.13
2019-05-22T22:57:17.956Z,3.10
2019-05-22T22:59:47.419Z,3.37
2019-05-22T23:02:20.904Z,3.97
2019-05-22T23:04:51.405Z,3.80
2019-05-22T23:07:21.982Z,3.50
2019-05-22T23:09:51.836Z,4.23
2019-05-22T23:12:21.093Z,3.20
2019-05-22T23:14:56.642Z,3.70
2019-05-22T23:17:26.225Z,3.10
2019-05-22T23:22:35.483Z,3.70
2019-05-22T23:25:06.534Z,3.57
2019-05-22T23:27:38.642Z,3.77
2019-05-22T23:30:09.820Z,3.50
2019-05-22T23:32:40.937Z,3.40
2019-05-22T23:35:09.953Z,3.30
2019-05-22T23:37:40.662Z,3.80
2019-05-22T23:40:13.007Z,3.80
2019-05-22T23:42:43.387Z,4.13
2019-05-22T23:45:18.345Z,4.33
2019-05-22T23:48:06.096Z,4.00
2019-05-22T23:50:37.644Z,3.80
2019-05-22T23:53:08.184Z,4.27
2019-05-22T23:55:38.499Z,4.27
2019-05-22T23:58:11.647Z,4.00
